Time;durP1;ratioP1;P1;durP2;ratioP2;P2;SDS_P1;SDS_P2;PMS_P1;PMS_P2;Temp;Humidity;BMP_temperature;BMP_pressure;BME280_temperature;BME280_humidity;BME280_pressure;Samples;Min_cycle;Max_cycle;Signal;HPM_P1;HPM_P2
2024/01/01 00:02:20;;;;;;;18.55;10.45;;;;;;;5.89;100.00;93813.91;5123373;27;20030;-88
2024/01/01 00:04:46;;;;;;;18.80;10.35;;;;;;;5.93;100.00;93812.34;5122937;27;20030;-89
2024/01/01 00:07:11;;;;;;;20.25;10.98;;;;;;;5.93;100.00;93829.78;5139647;27;20023;-88
2024/01/01 00:09:37;;;;;;;20.38;10.85;;;;;;;5.77;100.00;93816.69;5122751;27;20324;-88
2024/01/01 00:12:02;;;;;;;18.98;11.75;;;;;;;5.66;100.00;93815.03;5139644;27;20092;-88
2024/01/01 00:14:28;;;;;;;18.60;10.52;;;;;;;5.46;100.00;93800.09;5139622;27;20027;-87
2024/01/01 00:16:53;;;;;;;17.88;10.68;;;;;;;5.48;100.00;93809.22;5138767;27;20027;-87
2024/01/01 00:19:19;;;;;;;23.60;12.45;;;;;;;5.52;100.00;93805.06;5140222;27;20020;-88
2024/01/01 00:21:44;;;;;;;23.10;11.95;;;;;;;5.39;100.00;93826.28;5122659;27;20051;-88
2024/01/01 00:24:10;;;;;;;21.00;12.52;;;;;;;5.48;100.00;93817.00;5140644;27;20030;-87
2024/01/01 00:26:35;;;;;;;20.42;11.93;;;;;;;5.33;100.00;93822.09;5140493;27;20084;-87
2024/01/01 00:29:03;;;;;;;18.30;11.00;;;;;;;5.43;100.00;93821.38;5122309;27;20011;-88
2024/01/01 00:31:30;;;;;;;19.73;10.85;;;;;;;5.22;100.00;93823.78;5139373;27;20129;-88
2024/01/01 00:33:56;;;;;;;19.73;11.25;;;;;;;5.17;100.00;93808.16;5140480;27;20487;-87
2024/01/01 00:36:21;;;;;;;16.08;10.35;;;;;;;5.46;100.00;93811.28;5139477;27;20133;-87
2024/01/01 00:38:47;;;;;;;107.68;44.03;;;;;;;5.59;100.00;93812.66;5122189;27;20023;-87
2024/01/01 00:41:15;;;;;;;30.88;14.70;;;;;;;5.69;100.00;93818.97;5139357;27;20023;-88
2024/01/01 00:43:40;;;;;;;26.73;14.05;;;;;;;5.58;100.00;93816.28;5139173;27;20050;-88
2024/01/01 00:46:12;;;;;;;24.20;13.68;;;;;;;5.92;100.00;93825.63;5139121;27;20027;-88
2024/01/01 00:48:38;;;;;;;47.75;23.02;;;;;;;6.04;100.00;93821.03;5121923;27;20141;-88
2024/01/01 00:51:03;;;;;;;24.25;11.80;;;;;;;5.99;100.00;93823.56;5138997;27;20038;-87
2024/01/01 00:53:29;;;;;;;21.40;11.95;;;;;;;5.69;100.00;93821.56;5121953;27;20102;-87
2024/01/01 00:55:54;;;;;;;18.58;11.15;;;;;;;5.88;100.00;93827.94;5138920;27;20034;-87
2024/01/01 00:58:19;;;;;;;284.70;23.25;;;;;;;5.83;100.00;93824.50;5138784;27;20019;-88
2024/01/01 01:00:45;;;;;;;59.60;14.05;;;;;;;5.86;100.00;93830.00;5138553;27;20023;-88
2024/01/01 01:03:11;;;;;;;60.58;24.10;;;;;;;6.04;100.00;93843.66;5138668;27;20180;-87
2024/01/01 01:05:36;;;;;;;26.30;13.68;;;;;;;6.01;100.00;93846.72;5122039;27;20027;-88
2024/01/01 01:08:02;;;;;;;23.02;12.45;;;;;;;5.99;100.00;93841.78;5121926;27;20031;-88
2024/01/01 01:10:27;;;;;;;17.20;10.70;;;;;;;5.48;100.00;93845.59;5138595;27;20062;-88
2024/01/01 01:12:56;;;;;;;22.10;11.77;;;;;;;5.54;100.00;93858.59;5121962;27;20080;-88
2024/01/01 01:15:25;;;;;;;378.20;26.23;;;;;;;5.22;100.00;93853.16;5138516;27;20348;-88
2024/01/01 01:17:51;;;;;;;286.38;18.13;;;;;;;5.41;100.00;93846.81;5121637;27;20019;-87
2024/01/01 01:20:16;;;;;;;20.92;12.27;;;;;;;5.14;100.00;93863.97;5121510;27;20037;-88
2024/01/01 01:22:42;;;;;;;17.80;11.18;;;;;;;5.19;100.00;93853.66;5121729;27;20424;-88
2024/01/01 01:25:08;;;;;;;19.38;11.23;;;;;;;5.16;100.00;93874.91;5121388;27;20023;-87
2024/01/01 01:27:33;;;;;;;20.65;11.27;;;;;;;5.24;100.00;93876.28;5120381;27;20027;-88
2024/01/01 01:29:59;;;;;;;20.75;11.98;;;;;;;5.28;100.00;93872.16;5138132;27;20031;-88
2024/01/01 01:32:24;;;;;;;20.90;11.23;;;;;;;5.43;100.00;93862.94;5121535;27;20461;-87
2024/01/01 01:34:50;;;;;;;19.77;11.23;;;;;;;5.59;100.00;93863.84;5138095;27;20027;-88
2024/01/01 01:37:15;;;;;;;23.17;10.80;;;;;;;5.50;100.00;93860.91;5121326;27;20034;-88
2024/01/01 01:39:41;;;;;;;14.35;9.75;;;;;;;5.42;100.00;93862.16;5120991;27;20432;-88
2024/01/01 01:42:08;;;;;;;17.98;9.73;;;;;;;5.40;100.00;93858.25;5121294;27;20019;-88
2024/01/01 01:44:34;;;;;;;16.55;9.23;;;;;;;5.27;100.00;93859.41;5138431;27;20149;-88
2024/01/01 01:47:00;;;;;;;16.55;8.57;;;;;;;5.20;100.00;93859.63;5137614;27;20046;-88
2024/01/01 01:49:26;;;;;;;15.68;9.02;;;;;;;5.34;100.00;93854.81;5120787;27;20034;-87
2024/01/01 01:51:51;;;;;;;16.63;7.68;;;;;;;5.14;100.00;93845.78;5120834;27;20031;-87
2024/01/01 01:54:17;;;;;;;18.55;7.00;;;;;;;5.12;100.00;93858.25;5121158;27;20486;-86
2024/01/01 01:56:43;;;;;;;15.68;6.80;;;;;;;5.11;100.00;93864.47;5138485;27;20058;-87
2024/01/01 01:59:08;;;;;;;10.52;6.22;;;;;;;5.22;100.00;93862.75;5137651;27;20062;-87
2024/01/01 02:01:34;;;;;;;14.10;6.70;;;;;;;5.28;100.00;93860.97;5121018;27;20023;-87
2024/01/01 02:03:59;;;;;;;14.07;6.60;;;;;;;5.44;100.00;93859.31;5120643;27;20113;-88
2024/01/01 02:06:25;;;;;;;15.82;7.63;;;;;;;5.37;100.00;93867.31;5137798;27;20027;-87
2024/01/01 02:08:50;;;;;;;15.07;8.23;;;;;;;5.14;100.00;93856.19;5120647;27;20160;-87
2024/01/01 02:11:16;;;;;;;15.75;9.18;;;;;;;5.03;100.00;93862.31;5137404;27;20031;-87
2024/01/01 02:13:41;;;;;;;17.98;9.45;;;;;;;4.99;100.00;93863.81;5120439;27;20035;-87
2024/01/01 02:16:07;;;;;;;15.80;9.85;;;;;;;4.80;100.00;93877.13;5138490;27;20027;-87
2024/01/01 02:18:32;;;;;;;16.98;11.07;;;;;;;4.60;100.00;93868.09;5137789;27;20058;-87
2024/01/01 02:20:58;;;;;;;22.40;12.30;;;;;;;4.47;100.00;93877.00;5120637;27;20030;-87
2024/01/01 02:23:27;;;;;;;26.35;13.32;;;;;;;4.42;100.00;93871.75;5120250;27;20023;-88
2024/01/01 02:25:53;;;;;;;27.13;13.73;;;;;;;4.48;100.00;93870.00;5120643;27;20033;-88
2024/01/01 02:28:19;;;;;;;20.10;10.63;;;;;;;4.61;100.00;93879.25;5137131;27;20110;-87
2024/01/01 02:30:44;;;;;;;16.33;8.02;;;;;;;4.57;100.00;93873.75;5138595;27;20440;-87
2024/01/01 02:33:10;;;;;;;19.80;7.75;;;;;;;4.65;100.00;93869.94;5120458;27;20142;-88
2024/01/01 02:35:39;;;;;;;18.10;8.77;;;;;;;4.71;100.00;93869.00;5137018;27;20098;-87
2024/01/01 02:38:07;;;;;;;16.35;9.13;;;;;;;4.59;100.00;93863.94;5119867;27;20126;-88
2024/01/01 02:40:33;;;;;;;28.20;9.93;;;;;;;4.64;100.00;93863.97;5136581;27;20114;-88
2024/01/01 02:43:00;;;;;;;19.48;10.20;;;;;;;4.58;100.00;93862.34;5120378;28;20019;-87
2024/01/01 02:45:27;;;;;;;16.73;8.75;;;;;;;4.62;100.00;93857.44;5136958;27;20046;-88
2024/01/01 02:47:53;;;;;;;15.13;8.60;;;;;;;4.56;100.00;93856.59;5129919;27;20032;-87
2024/01/01 02:50:20;;;;;;;16.08;9.15;;;;;;;4.63;100.00;93851.22;5126383;27;20055;-88
2024/01/01 02:52:46;;;;;;;15.07;8.20;;;;;;;4.58;100.00;93849.34;5130248;27;20122;-88
2024/01/01 02:55:12;;;;;;;18.48;7.22;;;;;;;4.58;100.00;93835.63;5107039;28;20177;-88
2024/01/01 02:57:37;;;;;;;15.35;7.70;;;;;;;4.48;100.00;93836.28;5119195;28;20340;-88
2024/01/01 03:00:04;;;;;;;13.73;4.53;;;;;;;4.55;100.00;93833.50;5114360;28;20041;-87
2024/01/01 03:02:29;;;;;;;13.27;5.72;;;;;;;4.42;100.00;93829.47;5122030;28;20069;-88
2024/01/01 03:04:55;;;;;;;4.47;2.55;;;;;;;4.63;100.00;93828.69;5116384;28;20378;-87
2024/01/01 03:07:21;;;;;;;8.00;3.72;;;;;;;4.58;100.00;93831.19;5125319;27;20079;-88
2024/01/01 03:09:46;;;;;;;4.50;2.28;;;;;;;4.61;100.00;93833.34;5123225;28;20035;-88
2024/01/01 03:12:12;;;;;;;8.60;2.88;;;;;;;4.72;100.00;93825.63;5119717;28;20034;-88
2024/01/01 03:14:37;;;;;;;9.70;2.90;;;;;;;4.76;100.00;93822.31;5136621;28;20344;-88
2024/01/01 03:17:03;;;;;;;5.10;2.42;;;;;;;4.81;100.00;93824.19;5147422;27;20026;-88
2024/01/01 03:19:28;;;;;;;19.23;2.47;;;;;;;4.79;100.00;93824.41;5140575;27;20022;-88
2024/01/01 03:21:54;;;;;;;10.85;5.90;;;;;;;4.75;100.00;93831.13;5157263;27;20030;-88
2024/01/01 03:24:19;;;;;;;15.32;7.15;;;;;;;4.73;100.00;93829.78;5157243;27;20332;-88
2024/01/01 03:26:45;;;;;;;15.68;5.90;;;;;;;4.51;100.00;93833.22;5138738;27;20420;-87
2024/01/01 03:29:10;;;;;;;15.35;6.97;;;;;;;4.42;100.00;93835.44;5140098;27;20126;-88
2024/01/01 03:31:35;;;;;;;19.80;6.75;;;;;;;4.42;100.00;93830.25;5158635;27;20037;-88
2024/01/01 03:34:01;;;;;;;15.60;7.82;;;;;;;4.20;100.00;93830.25;5157138;27;20031;-88
2024/01/01 03:36:26;;;;;;;17.85;7.93;;;;;;;4.20;100.00;93838.03;5139801;27;20389;-88
2024/01/01 03:38:52;;;;;;;20.98;8.77;;;;;;;4.15;100.00;93835.34;5156849;27;20080;-88
2024/01/01 03:41:17;;;;;;;14.02;6.28;;;;;;;4.15;100.00;93835.34;5136407;28;20428;-88
2024/01/01 03:43:43;;;;;;;19.27;7.72;;;;;;;4.07;100.00;93832.16;5119125;28;20031;-88
2024/01/01 03:46:08;;;;;;;15.95;7.68;;;;;;;4.24;100.00;93837.31;5137407;27;20410;-88
2024/01/01 03:48:33;;;;;;;13.65;7.15;;;;;;;4.16;100.00;93836.91;5136358;28;20427;-88
2024/01/01 03:50:59;;;;;;;17.15;7.57;;;;;;;4.28;100.00;93836.81;5137544;27;20031;-88
2024/01/01 03:53:24;;;;;;;16.13;7.25;;;;;;;4.32;100.00;93836.09;5140147;27;20031;-88
2024/01/01 03:55:50;;;;;;;11.23;5.05;;;;;;;4.31;100.00;93842.31;5140101;27;20320;-88
2024/01/01 03:58:15;;;;;;;8.95;3.55;;;;;;;4.28;100.00;93845.38;5122956;27;20442;-88
2024/01/01 04:00:41;;;;;;;11.35;3.85;;;;;;;4.21;100.00;93844.78;5140166;27;20031;-88
2024/01/01 04:03:06;;;;;;;14.07;3.10;;;;;;;4.22;100.00;93841.16;5139980;27;20059;-88
2024/01/01 04:05:31;;;;;;;12.40;4.10;;;;;;;4.32;100.00;93838.69;5139874;27;20058;-88
2024/01/01 04:07:57;;;;;;;11.13;3.97;;;;;;;4.30;100.00;93838.13;5122690;27;20038;-88
2024/01/01 04:10:23;;;;;;;9.20;3.20;;;;;;;4.37;100.00;93843.94;5139679;27;20081;-89
2024/01/01 04:12:48;;;;;;;10.93;3.20;;;;;;;4.45;100.00;93844.56;5139948;27;20027;-88
2024/01/01 04:15:14;;;;;;;7.07;2.92;;;;;;;4.44;100.00;93846.34;5140873;27;20038;-88
2024/01/01 04:17:39;;;;;;;9.30;3.17;;;;;;;4.33;100.00;93847.25;5122621;27;20039;-88
2024/01/01 04:20:10;;;;;;;12.50;4.05;;;;;;;4.20;100.00;93843.22;5139604;27;20031;-88
2024/01/01 04:22:40;;;;;;;8.68;3.15;;;;;;;4.26;100.00;93838.88;5140792;27;20023;-88
2024/01/01 04:25:06;;;;;;;7.78;2.90;;;;;;;4.36;100.00;93844.97;5122559;27;20447;-87
2024/01/01 04:27:32;;;;;;;4.82;2.00;;;;;;;4.22;100.00;93846.34;5139308;27;20027;-88
2024/01/01 04:29:57;;;;;;;8.18;2.00;;;;;;;4.26;100.00;93847.44;5140586;27;20037;-88
2024/01/01 04:32:24;;;;;;;3.78;1.70;;;;;;;4.65;100.00;93855.16;5139360;27;20030;-88
2024/01/01 04:34:50;;;;;;;6.13;1.60;;;;;;;4.91;100.00;93854.66;5139396;27;20031;-88
2024/01/01 04:37:16;;;;;;;3.67;1.80;;;;;;;4.81;100.00;93858.72;5139520;27;20480;-87
2024/01/01 04:39:42;;;;;;;11.95;1.95;;;;;;;4.94;100.00;93865.34;5122700;27;20081;-88
2024/01/01 04:42:07;;;;;;;5.22;1.50;;;;;;;4.93;100.00;93866.38;5139110;27;20074;-88
2024/01/01 04:44:32;;;;;;;6.22;1.48;;;;;;;4.87;100.00;93866.56;5122363;27;20031;-88
2024/01/01 04:46:58;;;;;;;10.15;1.48;;;;;;;4.84;100.00;93873.00;5122203;27;20110;-88
2024/01/01 04:49:24;;;;;;;4.90;1.58;;;;;;;5.06;100.00;93867.78;5140167;27;20038;-87
2024/01/01 04:51:49;;;;;;;3.42;1.50;;;;;;;5.10;100.00;93865.50;5138942;27;20312;-87
2024/01/01 04:54:15;;;;;;;3.67;1.48;;;;;;;5.23;100.00;93864.31;5138924;27;20027;-88
2024/01/01 04:56:40;;;;;;;6.45;1.40;;;;;;;5.48;100.00;93865.56;5133777;27;20079;-88
2024/01/01 04:59:06;;;;;;;5.85;1.52;;;;;;;5.68;100.00;93874.59;5131472;27;20424;-88
2024/01/01 05:01:32;;;;;;;3.80;1.52;;;;;;;5.62;100.00;93866.72;5128877;27;20459;-88
2024/01/01 05:03:57;;;;;;;8.13;1.48;;;;;;;5.83;100.00;93866.09;5112080;27;20069;-89
2024/01/01 05:06:23;;;;;;;6.40;1.67;;;;;;;5.88;100.00;93879.13;5106653;28;20503;-88
2024/01/01 05:08:48;;;;;;;31.23;7.53;;;;;;;5.18;100.00;93864.28;5117886;28;20031;-89
2024/01/01 05:11:14;;;;;;;18.77;7.75;;;;;;;5.05;100.00;93874.00;5118355;28;20446;-89
2024/01/01 05:13:39;;;;;;;75.53;9.57;;;;;;;4.91;100.00;93878.81;5134385;27;20035;-88
2024/01/01 05:16:11;;;;;;;19.67;7.15;;;;;;;4.76;100.00;93889.81;5121251;27;20035;-88
2024/01/01 05:18:36;;;;;;;44.53;7.65;;;;;;;4.64;100.00;93889.13;5121468;27;20019;-88
2024/01/01 05:21:02;;;;;;;10.25;5.80;;;;;;;4.46;100.00;93888.41;5138424;27;20413;-88
2024/01/01 05:23:27;;;;;;;12.10;6.20;;;;;;;4.14;100.00;93901.19;5121297;27;20309;-88
2024/01/01 05:25:52;;;;;;;16.63;5.88;;;;;;;3.99;100.00;93897.34;5138729;27;20046;-88
2024/01/01 05:28:21;;;;;;;13.82;5.70;;;;;;;3.91;100.00;93895.94;5121424;27;20027;-89
2024/01/01 05:30:46;;;;;;;11.02;4.93;;;;;;;3.83;100.00;93896.38;5121349;27;20325;-88
2024/01/01 05:33:12;;;;;;;9.70;4.10;;;;;;;3.82;100.00;93892.97;5137803;27;20111;-87
2024/01/01 05:35:39;;;;;;;8.55;3.53;;;;;;;3.84;100.00;93902.31;5121072;27;20023;-88
2024/01/01 05:38:04;;;;;;;10.48;3.17;;;;;;;3.86;100.00;93895.09;5121295;27;20065;-88
2024/01/01 05:40:29;;;;;;;6.57;2.03;;;;;;;3.96;100.00;93892.66;5138038;27;20051;-88
2024/01/01 05:42:55;;;;;;;4.57;1.75;;;;;;;4.20;100.00;93901.03;5117465;28;20034;-88
2024/01/01 05:45:25;;;;;;;8.95;1.63;;;;;;;4.57;100.00;93889.31;5100331;27;20478;-88
2024/01/01 05:47:51;;;;;;;2.75;1.52;;;;;;;4.94;100.00;93886.09;5117011;28;20348;-88
2024/01/01 05:50:16;;;;;;;6.50;1.33;;;;;;;5.11;100.00;93895.63;5100506;28;20027;-88
2024/01/01 05:52:42;;;;;;;3.83;1.40;;;;;;;5.28;100.00;93887.75;5114522;27;20040;-87
2024/01/01 05:55:07;;;;;;;6.18;1.40;;;;;;;6.01;100.00;93902.13;5141381;27;20033;-89
2024/01/01 05:57:33;;;;;;;6.25;1.20;;;;;;;5.73;100.00;93901.38;5141270;27;20029;-88
2024/01/01 05:59:58;;;;;;;4.55;2.70;;;;;;;5.40;100.00;93897.22;5141537;27;20415;-88
2024/01/01 06:02:24;;;;;;;11.02;3.83;;;;;;;4.74;100.00;93906.66;5141447;27;20030;-88
2024/01/01 06:04:49;;;;;;;6.40;3.15;;;;;;;4.79;100.00;93910.06;5141184;27;20353;-87
2024/01/01 06:07:14;;;;;;;12.02;4.15;;;;;;;4.69;100.00;93914.38;5158275;27;20458;-88
2024/01/01 06:09:40;;;;;;;17.00;3.80;;;;;;;4.60;100.00;93911.41;5158092;27;20479;-88
2024/01/01 06:12:06;;;;;;;12.10;3.30;;;;;;;4.46;100.00;93918.75;5120748;27;20023;-88
2024/01/01 06:14:32;;;;;;;6.97;3.33;;;;;;;4.34;100.00;93921.44;5124802;27;20047;-88
2024/01/01 06:16:57;;;;;;;8.55;4.20;;;;;;;4.18;100.00;93925.66;5112728;27;20023;-88
2024/01/01 06:19:22;;;;;;;10.30;4.13;;;;;;;4.05;100.00;93919.75;5128025;27;20064;-88
2024/01/01 06:21:48;;;;;;;6.47;3.40;;;;;;;3.99;100.00;93925.88;5119580;27;20057;-88
2024/01/01 06:24:14;;;;;;;8.65;3.50;;;;;;;4.01;100.00;93916.03;5116982;28;20023;-88
2024/01/01 06:26:39;;;;;;;7.35;2.58;;;;;;;4.01;100.00;93928.25;5138383;27;20040;-88
2024/01/01 06:29:04;;;;;;;5.57;2.20;;;;;;;3.98;100.00;93928.72;5136947;27;20034;-88
2024/01/01 06:31:30;;;;;;;7.80;1.60;;;;;;;4.18;100.00;93920.47;5137135;27;20343;-88
2024/01/01 06:33:56;;;;;;;5.38;2.00;;;;;;;4.23;100.00;93915.34;5134028;27;20016;-90
2024/01/01 06:36:21;;;;;;;5.22;1.65;;;;;;;4.29;100.00;93922.16;5131139;27;20106;-88
2024/01/01 06:38:46;;;;;;;4.53;1.10;;;;;;;4.82;100.00;93926.97;5138138;27;20071;-89
2024/01/01 06:41:12;;;;;;;6.65;1.55;;;;;;;4.81;100.00;93921.03;5137130;27;20027;-88
2024/01/01 06:43:37;;;;;;;7.22;1.75;;;;;;;4.86;100.00;93928.06;5120146;28;20022;-88
2024/01/01 06:46:04;;;;;;;4.68;1.52;;;;;;;5.07;100.00;93933.50;5128232;27;20024;-89
2024/01/01 06:48:29;;;;;;;4.57;1.23;;;;;;;5.29;100.00;93937.88;5099243;28;20024;-90
2024/01/01 06:50:55;;;;;;;3.40;1.30;;;;;;;5.03;100.00;93942.81;5116184;28;20092;-89
2024/01/01 06:53:20;;;;;;;8.50;2.00;;;;;;;5.05;100.00;93938.16;5099506;28;20027;-88
2024/01/01 06:55:48;;;;;;;8.63;2.00;;;;;;;4.87;100.00;93953.00;5126633;28;20026;-89
2024/01/01 06:58:13;;;;;;;4.72;1.98;;;;;;;4.75;100.00;93958.31;5137910;27;20029;-88
2024/01/01 07:00:39;;;;;;;4.65;2.10;;;;;;;4.70;100.00;93968.63;5136615;28;20035;-89
2024/01/01 07:03:04;;;;;;;7.47;2.08;;;;;;;4.38;100.00;93959.63;5137899;28;20027;-88
2024/01/01 07:05:30;;;;;;;5.88;1.92;;;;;;;4.27;100.00;93960.50;5135726;28;20035;-88
2024/01/01 07:07:55;;;;;;;5.53;1.90;;;;;;;4.31;100.00;93959.03;5119591;28;20027;-88
2024/01/01 07:10:22;;;;;;;5.65;1.38;;;;;;;4.58;100.00;93963.53;5136679;28;20030;-87
2024/01/01 07:12:47;;;;;;;3.05;1.20;;;;;;;4.74;100.00;93961.16;5136666;28;20105;-88
2024/01/01 07:15:13;;;;;;;9.52;1.67;;;;;;;4.49;100.00;93970.16;5137776;27;20403;-87
2024/01/01 07:17:38;;;;;;;8.40;1.50;;;;;;;4.72;100.00;93973.56;5137653;28;20054;-88
2024/01/01 07:20:04;;;;;;;4.43;1.33;;;;;;;4.84;100.00;93969.06;5119414;28;20027;-88
2024/01/01 07:22:30;;;;;;;3.95;1.40;;;;;;;5.03;100.00;93972.16;5119987;28;20079;-88
2024/01/01 07:24:55;;;;;;;4.85;1.00;;;;;;;5.05;100.00;93969.31;5137646;27;20027;-88
2024/01/01 07:27:21;;;;;;;7.32;1.90;;;;;;;5.24;100.00;93985.38;5140479;27;20436;-88
2024/01/01 07:29:47;;;;;;;4.57;1.65;;;;;;;4.96;100.00;93997.53;5140589;27;20416;-88
2024/01/01 07:32:12;;;;;;;3.72;1.98;;;;;;;5.00;100.00;94006.38;5140596;27;20033;-87
2024/01/01 07:34:54;;;;;;;4.30;2.30;;;;;;;4.99;100.00;94001.44;5157706;27;20038;-88
2024/01/01 07:37:19;;;;;;;4.70;1.83;;;;;;;4.62;100.00;94000.16;5140390;27;20016;-88
2024/01/01 07:39:45;;;;;;;5.50;1.50;;;;;;;4.73;100.00;93998.50;5123391;27;20302;-87
2024/01/01 07:42:10;;;;;;;5.20;1.58;;;;;;;4.87;100.00;93996.34;5141015;27;20030;-88
2024/01/01 07:44:35;;;;;;;2.40;1.50;;;;;;;4.92;100.00;94004.19;5126171;27;20019;-87
2024/01/01 07:47:01;;;;;;;5.68;1.40;;;;;;;4.94;100.00;94000.34;5122834;27;20027;-88
2024/01/01 07:49:26;;;;;;;3.28;1.58;;;;;;;4.90;100.00;94004.44;5129647;27;20362;-88
2024/01/01 07:51:52;;;;;;;11.40;1.65;;;;;;;5.00;100.00;94000.41;5140943;27;20439;-87
2024/01/01 07:54:17;;;;;;;2.95;1.48;;;;;;;5.23;100.00;93994.97;5123157;27;20138;-88
2024/01/01 07:56:47;;;;;;;6.55;1.33;;;;;;;5.42;100.00;94002.44;5141365;27;20023;-88
2024/01/01 07:59:13;;;;;;;5.45;1.40;;;;;;;5.41;100.00;94007.91;5136214;27;20035;-88
2024/01/01 08:01:40;;;;;;;3.17;1.45;;;;;;;5.49;100.00;94015.25;5139935;27;20063;-89
2024/01/01 08:04:05;;;;;;;4.35;1.27;;;;;;;5.46;100.00;94013.94;5123130;27;20417;-89
2024/01/01 08:06:31;;;;;;;5.10;1.35;;;;;;;5.45;100.00;94007.19;5139969;27;20029;-89
2024/01/01 08:08:56;;;;;;;3.90;1.38;;;;;;;5.63;100.00;94010.47;5122775;27;20325;-88
2024/01/01 08:11:21;;;;;;;4.57;1.67;;;;;;;5.75;100.00;94013.72;5139830;27;20126;-89
2024/01/01 08:13:47;;;;;;;7.80;1.83;;;;;;;5.91;100.00;94014.63;5140930;27;20336;-88
2024/01/01 08:16:14;;;;;;;6.50;2.20;;;;;;;6.10;100.00;94016.13;5139656;27;20076;-88
2024/01/01 08:18:40;;;;;;;3.90;1.52;;;;;;;6.21;100.00;94021.16;5122740;27;20324;-89
2024/01/01 08:21:05;;;;;;;5.22;1.70;;;;;;;6.30;100.00;94025.91;5120260;28;20027;-88
2024/01/01 08:23:31;;;;;;;4.60;1.40;;;;;;;6.38;100.00;94035.84;5119037;28;20023;-88
2024/01/01 08:25:57;;;;;;;8.32;1.55;;;;;;;6.49;100.00;94039.34;5102275;28;20382;-88
2024/01/01 08:28:22;;;;;;;4.65;1.63;;;;;;;6.56;100.00;94052.91;5138108;27;20058;-89
2024/01/01 08:30:48;;;;;;;5.55;1.67;;;;;;;6.70;100.00;94050.69;5129616;27;20034;-89
2024/01/01 08:33:14;;;;;;;3.45;1.10;;;;;;;6.81;100.00;94055.94;5124458;27;20044;-88
2024/01/01 08:35:40;;;;;;;3.78;1.50;;;;;;;6.89;100.00;94056.28;5139384;27;20079;-89
2024/01/01 08:38:05;;;;;;;3.53;1.88;;;;;;;6.92;100.00;94063.59;5105035;28;20355;-87
2024/01/01 08:40:31;;;;;;;3.42;1.40;;;;;;;6.97;100.00;94065.44;5101547;28;20035;-87
2024/01/01 08:42:56;;;;;;;6.80;1.50;;;;;;;6.78;100.00;94062.44;5119806;28;20050;-87
2024/01/01 08:45:26;;;;;;;2.80;1.30;;;;;;;6.99;100.00;94073.78;5118722;28;20444;-87
2024/01/01 08:47:51;;;;;;;4.90;1.33;;;;;;;7.29;100.00;94077.59;5126933;27;20032;-87
2024/01/01 08:50:17;;;;;;;3.75;1.27;;;;;;;7.45;100.00;94082.88;5101410;28;20039;-88
2024/01/01 08:52:44;;;;;;;8.50;1.35;;;;;;;7.54;100.00;94078.75;5126056;27;20039;-90
2024/01/01 08:55:10;;;;;;;4.88;1.63;;;;;;;7.69;100.00;94075.41;5122320;27;20031;-87
2024/01/01 08:57:35;;;;;;;2.08;1.27;;;;;;;7.72;100.00;94082.72;5122024;27;20050;-88
2024/01/01 09:00:03;;;;;;;6.93;1.65;;;;;;;7.36;100.00;94085.19;5138636;27;20057;-87
2024/01/01 09:02:30;;;;;;;7.13;1.40;;;;;;;7.62;100.00;94086.06;5138793;27;20031;-87
2024/01/01 09:04:55;;;;;;;2.85;1.30;;;;;;;7.32;100.00;94084.13;5138736;27;20460;-87
2024/01/01 09:07:23;;;;;;;7.82;1.70;;;;;;;7.43;100.00;94084.97;5133853;27;20123;-88
2024/01/01 09:09:49;;;;;;;7.57;1.40;;;;;;;7.77;100.00;94098.41;5110451;28;20039;-88
2024/01/01 09:12:15;;;;;;;3.22;1.52;;;;;;;8.02;100.00;94094.28;5119145;28;20137;-88
2024/01/01 09:14:40;;;;;;;5.63;1.88;;;;;;;7.99;100.00;94100.00;5118356;28;20062;-88
2024/01/01 09:17:07;;;;;;;7.13;2.20;;;;;;;7.93;100.00;94093.22;5100785;28;20035;-88
2024/01/01 09:19:33;;;;;;;2.97;1.20;;;;;;;8.18;100.00;94099.56;5119473;27;20462;-88
2024/01/01 09:21:59;;;;;;;6.43;1.70;;;;;;;8.43;100.00;94096.19;5121489;27;20445;-88
2024/01/01 09:24:24;;;;;;;5.88;1.70;;;;;;;8.32;100.00;94094.59;5138356;27;20102;-87
2024/01/01 09:26:50;;;;;;;7.07;1.55;;;;;;;8.59;100.00;94099.59;5138261;27;20127;-88
2024/01/01 09:29:16;;;;;;;7.05;1.80;;;;;;;8.80;100.00;94094.41;5138095;27;20027;-87
2024/01/01 09:31:41;;;;;;;5.05;1.20;;;;;;;8.94;100.00;94099.84;5135755;27;20062;-88
2024/01/01 09:34:07;;;;;;;4.90;1.60;;;;;;;8.99;100.00;94106.91;5118558;27;20114;-88
2024/01/01 09:36:33;;;;;;;3.80;1.30;;;;;;;9.22;100.00;94112.66;5117633;28;20058;-88
2024/01/01 09:38:59;;;;;;;3.63;1.50;;;;;;;9.35;100.00;94101.63;5117459;28;20329;-88
2024/01/01 09:41:26;;;;;;;8.27;1.88;;;;;;;9.46;100.00;94116.22;5125069;27;20026;-87
2024/01/01 09:43:55;;;;;;;4.65;1.35;;;;;;;9.55;100.00;94118.31;5138508;27;20083;-88
2024/01/01 09:46:21;;;;;;;5.25;1.70;;;;;;;9.28;100.00;94108.97;5137809;27;20339;-87
2024/01/01 09:48:47;;;;;;;3.85;1.70;;;;;;;8.97;100.00;94103.78;5130876;27;20031;-88
2024/01/01 09:51:13;;;;;;;5.60;2.05;;;;;;;8.98;100.00;94100.91;5123886;27;20042;-88
2024/01/01 09:53:39;;;;;;;6.25;1.80;;;;;;;9.26;100.00;94101.41;5117274;27;20038;-87
2024/01/01 09:56:09;;;;;;;7.53;1.88;;;;;;;9.47;100.00;94096.91;5117092;28;20344;-87
2024/01/01 09:58:41;;;;;;;6.28;2.08;;;;;;;9.62;100.00;94088.22;5119170;27;20020;-87
2024/01/01 10:01:18;;;;;;;8.63;2.35;;;;;;;9.61;100.00;94097.09;5120410;27;20050;-88
2024/01/01 10:03:43;;;;;;;6.18;2.13;;;;;;;9.36;100.00;94081.50;5137881;27;20111;-87
2024/01/01 10:06:10;;;;;;;5.47;2.10;;;;;;;9.45;100.00;94096.38;5125632;27;20110;-87
2024/01/01 10:08:37;;;;;;;9.55;1.85;;;;;;;9.70;100.00;94086.88;5100032;28;20031;-88
2024/01/01 10:11:20;;;;;;;3.35;1.70;;;;;;;9.90;100.00;94087.84;5117207;27;20440;-88
2024/01/01 10:13:46;;;;;;;;;;;;;;;10.03;100.00;94087.22;5100708;28;20035;-87
2024/01/01 10:16:24;;;;;;;7.70;2.13;;;;;;;10.28;100.00;94085.53;5116841;28;19908;-88
2024/01/01 10:18:57;;;;;;;6.40;1.98;;;;;;;10.34;100.00;94088.88;5099977;28;20116;-87
2024/01/01 10:21:30;;;;;;;6.05;1.70;;;;;;;10.33;100.00;94088.13;5117958;28;20031;-87
2024/01/01 10:23:57;;;;;;;7.70;1.63;;;;;;;10.45;100.00;94089.63;5100093;28;20409;-87
2024/01/01 10:26:22;;;;;;;4.45;1.60;;;;;;;10.62;100.00;94086.63;5099880;28;20032;-87
2024/01/01 10:28:50;;;;;;;7.25;1.92;;;;;;;10.81;100.00;94086.75;5129575;27;20107;-86
2024/01/01 10:31:15;;;;;;;5.03;1.83;;;;;;;10.89;100.00;94088.75;5100284;28;20436;-88
2024/01/01 10:33:42;;;;;;;6.00;2.00;;;;;;;10.98;100.00;94086.34;5119350;27;20031;-87
2024/01/01 10:36:14;;;;;;;4.30;1.45;;;;;;;10.88;100.00;94086.44;5119966;27;20027;-88
2024/01/01 10:38:45;;;;;;;5.18;1.55;;;;;;;10.73;100.00;94092.56;5137323;27;20029;-87
2024/01/01 10:41:11;;;;;;;5.45;1.55;;;;;;;10.78;100.00;94092.53;5116282;28;20038;-87
2024/01/01 10:43:37;;;;;;;4.50;1.67;;;;;;;10.87;100.00;94090.88;5127671;27;20047;-89
2024/01/01 10:46:06;;;;;;;4.03;1.42;;;;;;;10.85;100.00;94085.13;5099877;28;20065;-88
2024/01/01 10:48:35;;;;;;;5.93;1.63;;;;;;;10.88;100.00;94087.19;5116211;28;20031;-87
2024/01/01 10:51:18;;;;;;;3.80;2.00;;;;;;;10.97;100.00;94082.13;5133350;27;20031;-86
2024/01/01 10:54:04;;;;;;;3.03;1.58;;;;;;;11.05;100.00;94083.41;5128817;27;20031;-87
2024/01/01 10:56:53;;;;;;;5.88;1.60;;;;;;;10.90;100.00;94086.94;5123810;28;20076;-87
2024/01/01 10:59:20;;;;;;;3.72;1.52;;;;;;;10.90;100.00;94081.69;5116060;28;20024;-88
2024/01/01 11:01:50;;;;;;;4.05;1.40;;;;;;;10.97;100.00;94078.75;5099471;28;20038;-87
2024/01/01 11:04:27;;;;;;;5.65;1.60;;;;;;;11.20;100.00;94073.81;5116069;28;20097;-88
2024/01/01 11:06:53;;;;;;;4.55;1.50;;;;;;;11.08;100.00;94074.97;5100114;28;20058;-87
2024/01/01 11:09:19;;;;;;;5.40;1.92;;;;;;;11.05;100.00;94070.28;5116434;28;20028;-86
2024/01/01 11:11:54;;;;;;;5.97;1.48;;;;;;;11.34;100.00;94063.44;5122904;28;20428;-87
2024/01/01 11:14:27;;;;;;;8.50;1.67;;;;;;;11.44;100.00;94066.72;5114490;28;20027;-87
2024/01/01 11:16:54;;;;;;;7.25;2.30;;;;;;;11.52;100.00;94072.44;5137338;27;20031;-87
2024/01/01 11:19:41;;;;;;;2.83;1.40;;;;;;;11.24;100.00;94074.81;5136569;28;20064;-87
2024/01/01 11:22:29;;;;;;;9.45;1.73;;;;;;;11.33;100.00;94070.53;5136554;28;20055;-87
2024/01/01 11:24:55;;;;;;;3.15;1.67;;;;;;;11.50;100.00;94077.94;5137418;27;20027;-86